sensor_id;sensor_type;location;lat;lon;timestamp;P1;durP1;ratioP1;P2;durP2;ratioP2
12267;SDS011;6196;48.398;11.736;2023-06-22T00:01:21;9.13;;;5.53;;
12267;SDS011;6196;48.398;11.736;2023-06-22T00:03:51;8.93;;;6.20;;
12267;SDS011;6196;48.398;11.736;2023-06-22T00:06:18;8.10;;;6.37;;
12267;SDS011;6196;48.398;11.736;2023-06-22T00:08:45;7.73;;;5.73;;
12267;SDS011;6196;48.398;11.736;2023-06-22T00:11:13;8.77;;;5.87;;
12267;SDS011;6196;48.398;11.736;2023-06-22T00:13:40;7.30;;;5.63;;
12267;SDS011;6196;48.398;11.736;2023-06-22T00:16:07;8.20;;;5.80;;
12267;SDS011;6196;48.398;11.736;2023-06-22T00:18:34;7.97;;;6.40;;
12267;SDS011;6196;48.398;11.736;2023-06-22T00:21:01;10.50;;;5.93;;
12267;SDS011;6196;48.398;11.736;2023-06-22T00:23:28;9.23;;;5.93;;
12267;SDS011;6196;48.398;11.736;2023-06-22T00:25:55;8.17;;;6.23;;
12267;SDS011;6196;48.398;11.736;2023-06-22T00:28:21;8.77;;;5.60;;
12267;SDS011;6196;48.398;11.736;2023-06-22T00:30:49;8.93;;;6.23;;
12267;SDS011;6196;48.398;11.736;2023-06-22T00:33:16;9.90;;;5.70;;
12267;SDS011;6196;48.398;11.736;2023-06-22T00:35:43;9.17;;;5.87;;
12267;SDS011;6196;48.398;11.736;2023-06-22T00:38:10;8.03;;;5.50;;
12267;SDS011;6196;48.398;11.736;2023-06-22T00:40:38;8.60;;;5.90;;
12267;SDS011;6196;48.398;11.736;2023-06-22T00:43:05;8.33;;;6.00;;
12267;SDS011;6196;48.398;11.736;2023-06-22T00:45:32;8.93;;;5.53;;
12267;SDS011;6196;48.398;11.736;2023-06-22T00:47:59;7.70;;;5.73;;
12267;SDS011;6196;48.398;11.736;2023-06-22T00:50:28;8.43;;;6.07;;
12267;SDS011;6196;48.398;11.736;2023-06-22T00:53:03;9.27;;;5.63;;
12267;SDS011;6196;48.398;11.736;2023-06-22T00:55:36;10.03;;;5.90;;
12267;SDS011;6196;48.398;11.736;2023-06-22T00:58:06;9.77;;;5.60;;
12267;SDS011;6196;48.398;11.736;2023-06-22T01:00:36;9.23;;;6.33;;
12267;SDS011;6196;48.398;11.736;2023-06-22T01:03:05;9.93;;;5.83;;
12267;SDS011;6196;48.398;11.736;2023-06-22T01:05:36;8.10;;;5.20;;
12267;SDS011;6196;48.398;11.736;2023-06-22T01:08:19;9.63;;;5.97;;
12267;SDS011;6196;48.398;11.736;2023-06-22T01:11:45;10.10;;;6.17;;
12267;SDS011;6196;48.398;11.736;2023-06-22T01:14:14;11.17;;;5.93;;
12267;SDS011;6196;48.398;11.736;2023-06-22T01:16:52;7.37;;;4.83;;
12267;SDS011;6196;48.398;11.736;2023-06-22T01:19:35;6.80;;;5.63;;
12267;SDS011;6196;48.398;11.736;2023-06-22T01:22:13;9.33;;;5.90;;
12267;SDS011;6196;48.398;11.736;2023-06-22T01:29:55;8.33;;;6.40;;
12267;SDS011;6196;48.398;11.736;2023-06-22T01:32:28;8.40;;;5.43;;
12267;SDS011;6196;48.398;11.736;2023-06-22T01:35:01;8.17;;;5.50;;
12267;SDS011;6196;48.398;11.736;2023-06-22T01:37:32;8.33;;;5.70;;
12267;SDS011;6196;48.398;11.736;2023-06-22T01:40:02;7.17;;;5.57;;
12267;SDS011;6196;48.398;11.736;2023-06-22T01:42:31;7.43;;;5.80;;
12267;SDS011;6196;48.398;11.736;2023-06-22T01:44:59;9.63;;;5.70;;
12267;SDS011;6196;48.398;11.736;2023-06-22T01:47:27;9.73;;;5.90;;
12267;SDS011;6196;48.398;11.736;2023-06-22T01:49:54;8.63;;;5.73;;
12267;SDS011;6196;48.398;11.736;2023-06-22T01:52:21;9.77;;;5.93;;
12267;SDS011;6196;48.398;11.736;2023-06-22T01:54:48;7.63;;;5.57;;
12267;SDS011;6196;48.398;11.736;2023-06-22T01:57:15;9.33;;;6.20;;
12267;SDS011;6196;48.398;11.736;2023-06-22T01:59:52;9.93;;;6.40;;
12267;SDS011;6196;48.398;11.736;2023-06-22T02:02:36;7.67;;;5.80;;
12267;SDS011;6196;48.398;11.736;2023-06-22T02:05:15;10.90;;;5.97;;
12267;SDS011;6196;48.398;11.736;2023-06-22T02:07:49;10.03;;;6.07;;
12267;SDS011;6196;48.398;11.736;2023-06-22T02:10:25;9.00;;;5.90;;
12267;SDS011;6196;48.398;11.736;2023-06-22T02:12:55;10.93;;;5.87;;
12267;SDS011;6196;48.398;11.736;2023-06-22T02:15:24;11.17;;;6.27;;
12267;SDS011;6196;48.398;11.736;2023-06-22T02:17:51;7.40;;;5.43;;
12267;SDS011;6196;48.398;11.736;2023-06-22T02:20:19;8.73;;;5.77;;
12267;SDS011;6196;48.398;11.736;2023-06-22T02:22:46;7.50;;;5.87;;
12267;SDS011;6196;48.398;11.736;2023-06-22T02:25:13;10.57;;;6.23;;
12267;SDS011;6196;48.398;11.736;2023-06-22T02:27:40;10.03;;;5.57;;
12267;SDS011;6196;48.398;11.736;2023-06-22T02:30:08;10.23;;;6.30;;
12267;SDS011;6196;48.398;11.736;2023-06-22T02:32:35;9.83;;;5.90;;
12267;SDS011;6196;48.398;11.736;2023-06-22T02:35:02;11.37;;;5.97;;
12267;SDS011;6196;48.398;11.736;2023-06-22T02:37:31;11.60;;;6.30;;
12267;SDS011;6196;48.398;11.736;2023-06-22T02:39:58;8.27;;;6.30;;
12267;SDS011;6196;48.398;11.736;2023-06-22T02:42:25;13.60;;;6.50;;
12267;SDS011;6196;48.398;11.736;2023-06-22T02:44:52;9.13;;;5.93;;
12267;SDS011;6196;48.398;11.736;2023-06-22T02:47:19;8.90;;;7.10;;
12267;SDS011;6196;48.398;11.736;2023-06-22T02:49:46;8.20;;;6.43;;
12267;SDS011;6196;48.398;11.736;2023-06-22T02:52:13;13.03;;;6.03;;
12267;SDS011;6196;48.398;11.736;2023-06-22T02:54:40;9.53;;;5.83;;
12267;SDS011;6196;48.398;11.736;2023-06-22T02:57:07;9.67;;;6.57;;
12267;SDS011;6196;48.398;11.736;2023-06-22T02:59:40;8.37;;;6.47;;
12267;SDS011;6196;48.398;11.736;2023-06-22T03:02:08;9.73;;;6.80;;
12267;SDS011;6196;48.398;11.736;2023-06-22T03:04:35;9.03;;;6.03;;
12267;SDS011;6196;48.398;11.736;2023-06-22T03:07:02;9.63;;;6.27;;
12267;SDS011;6196;48.398;11.736;2023-06-22T03:09:31;10.13;;;6.33;;
12267;SDS011;6196;48.398;11.736;2023-06-22T03:11:58;8.90;;;7.10;;
12267;SDS011;6196;48.398;11.736;2023-06-22T03:14:25;8.80;;;6.73;;
12267;SDS011;6196;48.398;11.736;2023-06-22T03:16:52;8.03;;;6.33;;
12267;SDS011;6196;48.398;11.736;2023-06-22T03:19:19;10.27;;;6.37;;
12267;SDS011;6196;48.398;11.736;2023-06-22T03:21:47;9.20;;;7.03;;
12267;SDS011;6196;48.398;11.736;2023-06-22T03:24:14;9.20;;;6.80;;
12267;SDS011;6196;48.398;11.736;2023-06-22T03:26:41;7.33;;;6.10;;
12267;SDS011;6196;48.398;11.736;2023-06-22T03:29:08;8.10;;;6.43;;
12267;SDS011;6196;48.398;11.736;2023-06-22T03:31:35;11.40;;;7.17;;
12267;SDS011;6196;48.398;11.736;2023-06-22T03:34:02;10.00;;;6.30;;
12267;SDS011;6196;48.398;11.736;2023-06-22T03:36:29;13.20;;;7.50;;
12267;SDS011;6196;48.398;11.736;2023-06-22T03:38:56;11.60;;;7.10;;
12267;SDS011;6196;48.398;11.736;2023-06-22T03:41:23;8.80;;;6.93;;
12267;SDS011;6196;48.398;11.736;2023-06-22T03:43:51;8.50;;;6.87;;
12267;SDS011;6196;48.398;11.736;2023-06-22T03:46:18;10.43;;;6.80;;
12267;SDS011;6196;48.398;11.736;2023-06-22T03:48:46;9.97;;;6.87;;
12267;SDS011;6196;48.398;11.736;2023-06-22T03:51:13;12.77;;;7.20;;
12267;SDS011;6196;48.398;11.736;2023-06-22T03:53:40;8.90;;;6.50;;
12267;SDS011;6196;48.398;11.736;2023-06-22T03:56:07;10.17;;;7.37;;
12267;SDS011;6196;48.398;11.736;2023-06-22T03:58:34;11.03;;;6.90;;
12267;SDS011;6196;48.398;11.736;2023-06-22T04:01:02;9.37;;;6.83;;
12267;SDS011;6196;48.398;11.736;2023-06-22T04:03:29;11.90;;;7.37;;
12267;SDS011;6196;48.398;11.736;2023-06-22T04:05:56;9.50;;;6.53;;
12267;SDS011;6196;48.398;11.736;2023-06-22T04:08:23;9.83;;;6.77;;
12267;SDS011;6196;48.398;11.736;2023-06-22T04:10:50;8.93;;;7.37;;
12267;SDS011;6196;48.398;11.736;2023-06-22T04:13:17;10.83;;;7.00;;
12267;SDS011;6196;48.398;11.736;2023-06-22T04:15:44;10.43;;;7.27;;
12267;SDS011;6196;48.398;11.736;2023-06-22T04:18:11;11.67;;;6.90;;
12267;SDS011;6196;48.398;11.736;2023-06-22T04:20:39;8.17;;;6.40;;
12267;SDS011;6196;48.398;11.736;2023-06-22T04:23:06;10.27;;;6.53;;
12267;SDS011;6196;48.398;11.736;2023-06-22T04:25:33;10.50;;;6.83;;
12267;SDS011;6196;48.398;11.736;2023-06-22T04:28:00;10.17;;;6.33;;
12267;SDS011;6196;48.398;11.736;2023-06-22T04:30:29;10.00;;;6.67;;
12267;SDS011;6196;48.398;11.736;2023-06-22T04:32:57;7.63;;;6.63;;
12267;SDS011;6196;48.398;11.736;2023-06-22T04:35:25;12.50;;;6.47;;
12267;SDS011;6196;48.398;11.736;2023-06-22T04:37:52;13.77;;;6.17;;
12267;SDS011;6196;48.398;11.736;2023-06-22T04:40:24;9.23;;;6.43;;
12267;SDS011;6196;48.398;11.736;2023-06-22T04:42:52;8.30;;;5.60;;
12267;SDS011;6196;48.398;11.736;2023-06-22T04:45:20;8.93;;;5.90;;
12267;SDS011;6196;48.398;11.736;2023-06-22T04:47:47;10.77;;;6.57;;
12267;SDS011;6196;48.398;11.736;2023-06-22T04:50:15;11.97;;;6.70;;
12267;SDS011;6196;48.398;11.736;2023-06-22T04:52:43;8.33;;;5.53;;
12267;SDS011;6196;48.398;11.736;2023-06-22T04:55:11;10.77;;;6.43;;
12267;SDS011;6196;48.398;11.736;2023-06-22T04:57:41;8.30;;;6.70;;
12267;SDS011;6196;48.398;11.736;2023-06-22T05:00:11;9.37;;;6.70;;
12267;SDS011;6196;48.398;11.736;2023-06-22T05:02:39;10.83;;;7.03;;
12267;SDS011;6196;48.398;11.736;2023-06-22T05:05:07;7.90;;;5.77;;
12267;SDS011;6196;48.398;11.736;2023-06-22T05:07:35;9.97;;;5.87;;
12267;SDS011;6196;48.398;11.736;2023-06-22T05:10:03;9.13;;;6.67;;
12267;SDS011;6196;48.398;11.736;2023-06-22T05:12:31;9.10;;;6.10;;
12267;SDS011;6196;48.398;11.736;2023-06-22T05:14:58;10.03;;;5.53;;
12267;SDS011;6196;48.398;11.736;2023-06-22T05:17:25;8.73;;;6.33;;
12267;SDS011;6196;48.398;11.736;2023-06-22T05:19:52;8.53;;;5.90;;
12267;SDS011;6196;48.398;11.736;2023-06-22T05:22:19;9.00;;;6.10;;
12267;SDS011;6196;48.398;11.736;2023-06-22T05:24:46;8.30;;;5.83;;
12267;SDS011;6196;48.398;11.736;2023-06-22T05:27:14;7.13;;;5.80;;
12267;SDS011;6196;48.398;11.736;2023-06-22T05:29:41;12.03;;;6.50;;
12267;SDS011;6196;48.398;11.736;2023-06-22T05:32:26;12.33;;;6.30;;
12267;SDS011;6196;48.398;11.736;2023-06-22T05:34:53;9.90;;;5.43;;
12267;SDS011;6196;48.398;11.736;2023-06-22T05:37:20;11.13;;;6.27;;
12267;SDS011;6196;48.398;11.736;2023-06-22T05:39:47;9.03;;;5.80;;
12267;SDS011;6196;48.398;11.736;2023-06-22T05:42:14;8.37;;;6.03;;
12267;SDS011;6196;48.398;11.736;2023-06-22T05:44:41;10.17;;;5.73;;
12267;SDS011;6196;48.398;11.736;2023-06-22T05:47:08;8.50;;;5.13;;
12267;SDS011;6196;48.398;11.736;2023-06-22T05:49:35;9.67;;;6.23;;
12267;SDS011;6196;48.398;11.736;2023-06-22T05:52:02;9.33;;;6.00;;
12267;SDS011;6196;48.398;11.736;2023-06-22T05:54:29;7.70;;;5.57;;
12267;SDS011;6196;48.398;11.736;2023-06-22T05:56:57;8.17;;;5.23;;
12267;SDS011;6196;48.398;11.736;2023-06-22T05:59:23;8.20;;;4.83;;
12267;SDS011;6196;48.398;11.736;2023-06-22T06:01:50;7.70;;;5.77;;
12267;SDS011;6196;48.398;11.736;2023-06-22T06:04:18;8.67;;;5.80;;
12267;SDS011;6196;48.398;11.736;2023-06-22T06:06:45;12.27;;;6.87;;
12267;SDS011;6196;48.398;11.736;2023-06-22T06:09:15;8.67;;;6.03;;
12267;SDS011;6196;48.398;11.736;2023-06-22T06:11:42;9.53;;;6.17;;
12267;SDS011;6196;48.398;11.736;2023-06-22T06:14:09;10.57;;;5.70;;
12267;SDS011;6196;48.398;11.736;2023-06-22T06:16:35;7.53;;;4.80;;
12267;SDS011;6196;48.398;11.736;2023-06-22T06:19:02;8.03;;;5.30;;
12267;SDS011;6196;48.398;11.736;2023-06-22T06:21:29;9.33;;;5.63;;
12267;SDS011;6196;48.398;11.736;2023-06-22T06:23:56;9.53;;;5.13;;
12267;SDS011;6196;48.398;11.736;2023-06-22T06:26:24;8.17;;;5.37;;
12267;SDS011;6196;48.398;11.736;2023-06-22T06:28:56;11.43;;;5.10;;
12267;SDS011;6196;48.398;11.736;2023-06-22T06:31:23;8.77;;;5.20;;
12267;SDS011;6196;48.398;11.736;2023-06-22T06:33:50;6.17;;;4.40;;
12267;SDS011;6196;48.398;11.736;2023-06-22T06:36:17;11.13;;;5.77;;
12267;SDS011;6196;48.398;11.736;2023-06-22T06:38:44;10.73;;;5.37;;
12267;SDS011;6196;48.398;11.736;2023-06-22T06:41:15;9.93;;;5.73;;
12267;SDS011;6196;48.398;11.736;2023-06-22T06:43:42;7.97;;;5.50;;
12267;SDS011;6196;48.398;11.736;2023-06-22T06:46:09;9.03;;;5.37;;
12267;SDS011;6196;48.398;11.736;2023-06-22T06:48:36;8.17;;;5.27;;
12267;SDS011;6196;48.398;11.736;2023-06-22T06:51:03;9.13;;;4.90;;
12267;SDS011;6196;48.398;11.736;2023-06-22T06:53:30;7.77;;;4.50;;
12267;SDS011;6196;48.398;11.736;2023-06-22T06:55:57;9.07;;;5.07;;
12267;SDS011;6196;48.398;11.736;2023-06-22T06:58:24;9.27;;;5.10;;
12267;SDS011;6196;48.398;11.736;2023-06-22T07:00:51;8.37;;;4.80;;
12267;SDS011;6196;48.398;11.736;2023-06-22T07:03:18;7.40;;;4.80;;
12267;SDS011;6196;48.398;11.736;2023-06-22T07:05:45;6.20;;;4.93;;
12267;SDS011;6196;48.398;11.736;2023-06-22T07:08:12;7.13;;;4.83;;
12267;SDS011;6196;48.398;11.736;2023-06-22T07:10:39;7.57;;;4.47;;
12267;SDS011;6196;48.398;11.736;2023-06-22T07:13:05;9.67;;;4.53;;
12267;SDS011;6196;48.398;11.736;2023-06-22T07:15:32;6.50;;;4.20;;
12267;SDS011;6196;48.398;11.736;2023-06-22T07:17:59;7.47;;;5.00;;
12267;SDS011;6196;48.398;11.736;2023-06-22T07:20:26;9.30;;;4.83;;
12267;SDS011;6196;48.398;11.736;2023-06-22T07:22:54;8.27;;;4.90;;
12267;SDS011;6196;48.398;11.736;2023-06-22T07:25:21;9.10;;;4.60;;
12267;SDS011;6196;48.398;11.736;2023-06-22T07:28:01;7.90;;;4.33;;
12267;SDS011;6196;48.398;11.736;2023-06-22T07:30:30;9.07;;;4.10;;
12267;SDS011;6196;48.398;11.736;2023-06-22T07:32:59;7.13;;;4.27;;
12267;SDS011;6196;48.398;11.736;2023-06-22T07:35:30;7.57;;;4.20;;
12267;SDS011;6196;48.398;11.736;2023-06-22T07:37:57;9.53;;;4.40;;
12267;SDS011;6196;48.398;11.736;2023-06-22T07:40:26;7.87;;;4.20;;
12267;SDS011;6196;48.398;11.736;2023-06-22T07:42:54;8.00;;;4.00;;
12267;SDS011;6196;48.398;11.736;2023-06-22T07:45:20;6.27;;;3.77;;
12267;SDS011;6196;48.398;11.736;2023-06-22T07:47:47;8.13;;;4.10;;
12267;SDS011;6196;48.398;11.736;2023-06-22T07:50:15;10.20;;;4.38;;
12267;SDS011;6196;48.398;11.736;2023-06-22T07:52:42;7.80;;;4.07;;
12267;SDS011;6196;48.398;11.736;2023-06-22T07:55:08;7.63;;;4.55;;
12267;SDS011;6196;48.398;11.736;2023-06-22T07:57:35;8.27;;;4.35;;
12267;SDS011;6196;48.398;11.736;2023-06-22T08:00:03;6.60;;;4.43;;
12267;SDS011;6196;48.398;11.736;2023-06-22T08:02:42;8.60;;;4.00;;
12267;SDS011;6196;48.398;11.736;2023-06-22T08:05:12;14.25;;;4.90;;
12267;SDS011;6196;48.398;11.736;2023-06-22T08:07:48;7.88;;;4.30;;
12267;SDS011;6196;48.398;11.736;2023-06-22T08:10:16;9.20;;;4.50;;
12267;SDS011;6196;48.398;11.736;2023-06-22T08:12:43;8.85;;;3.90;;
12267;SDS011;6196;48.398;11.736;2023-06-22T08:15:10;11.85;;;5.00;;
12267;SDS011;6196;48.398;11.736;2023-06-22T08:17:37;7.65;;;4.30;;
12267;SDS011;6196;48.398;11.736;2023-06-22T08:20:06;8.70;;;4.45;;
12267;SDS011;6196;48.398;11.736;2023-06-22T08:22:40;10.27;;;4.57;;
12267;SDS011;6196;48.398;11.736;2023-06-22T08:25:08;9.77;;;4.40;;
12267;SDS011;6196;48.398;11.736;2023-06-22T08:27:36;7.72;;;4.25;;
12267;SDS011;6196;48.398;11.736;2023-06-22T08:30:03;8.18;;;5.18;;
12267;SDS011;6196;48.398;11.736;2023-06-22T08:32:31;8.63;;;4.63;;
12267;SDS011;6196;48.398;11.736;2023-06-22T08:34:59;9.35;;;4.60;;
12267;SDS011;6196;48.398;11.736;2023-06-22T08:37:26;11.50;;;4.45;;
12267;SDS011;6196;48.398;11.736;2023-06-22T08:39:58;10.82;;;4.30;;
12267;SDS011;6196;48.398;11.736;2023-06-22T08:42:27;8.75;;;4.60;;
12267;SDS011;6196;48.398;11.736;2023-06-22T08:44:55;11.60;;;5.28;;
12267;SDS011;6196;48.398;11.736;2023-06-22T08:47:22;10.30;;;4.32;;
12267;SDS011;6196;48.398;11.736;2023-06-22T08:49:49;9.07;;;4.32;;
12267;SDS011;6196;48.398;11.736;2023-06-22T08:52:17;8.20;;;4.40;;
12267;SDS011;6196;48.398;11.736;2023-06-22T08:54:46;8.75;;;4.47;;
12267;SDS011;6196;48.398;11.736;2023-06-22T08:57:14;8.48;;;4.88;;
12267;SDS011;6196;48.398;11.736;2023-06-22T08:59:42;6.88;;;3.95;;
12267;SDS011;6196;48.398;11.736;2023-06-22T09:02:09;11.55;;;4.20;;
12267;SDS011;6196;48.398;11.736;2023-06-22T09:04:36;9.05;;;4.18;;
12267;SDS011;6196;48.398;11.736;2023-06-22T09:07:04;7.97;;;4.93;;
12267;SDS011;6196;48.398;11.736;2023-06-22T09:09:31;10.05;;;4.20;;
12267;SDS011;6196;48.398;11.736;2023-06-22T09:11:58;10.02;;;4.25;;
12267;SDS011;6196;48.398;11.736;2023-06-22T09:14:25;11.35;;;5.20;;
12267;SDS011;6196;48.398;11.736;2023-06-22T09:16:52;11.00;;;5.18;;
12267;SDS011;6196;48.398;11.736;2023-06-22T09:19:19;9.10;;;4.85;;
12267;SDS011;6196;48.398;11.736;2023-06-22T09:21:46;10.02;;;4.93;;
12267;SDS011;6196;48.398;11.736;2023-06-22T09:24:13;9.35;;;4.78;;
12267;SDS011;6196;48.398;11.736;2023-06-22T09:26:40;9.52;;;4.88;;
12267;SDS011;6196;48.398;11.736;2023-06-22T09:29:07;9.73;;;4.95;;
12267;SDS011;6196;48.398;11.736;2023-06-22T09:31:33;9.32;;;4.65;;
12267;SDS011;6196;48.398;11.736;2023-06-22T09:34:01;11.57;;;4.90;;
12267;SDS011;6196;48.398;11.736;2023-06-22T09:36:27;8.10;;;4.70;;
12267;SDS011;6196;48.398;11.736;2023-06-22T09:38:54;9.20;;;4.93;;
12267;SDS011;6196;48.398;11.736;2023-06-22T09:41:22;11.68;;;5.32;;
12267;SDS011;6196;48.398;11.736;2023-06-22T09:43:50;10.38;;;4.80;;
12267;SDS011;6196;48.398;11.736;2023-06-22T09:46:19;8.65;;;5.43;;
12267;SDS011;6196;48.398;11.736;2023-06-22T09:48:48;9.80;;;4.70;;
12267;SDS011;6196;48.398;11.736;2023-06-22T09:51:15;11.02;;;4.90;;
12267;SDS011;6196;48.398;11.736;2023-06-22T09:53:43;10.90;;;4.90;;
12267;SDS011;6196;48.398;11.736;2023-06-22T09:56:10;10.85;;;4.68;;
12267;SDS011;6196;48.398;11.736;2023-06-22T09:58:43;11.93;;;5.20;;
12267;SDS011;6196;48.398;11.736;2023-06-22T10:01:13;11.27;;;4.90;;
12267;SDS011;6196;48.398;11.736;2023-06-22T10:03:42;9.88;;;4.88;;
12267;SDS011;6196;48.398;11.736;2023-06-22T10:06:10;10.25;;;4.85;;
12267;SDS011;6196;48.398;11.736;2023-06-22T10:08:37;8.85;;;4.93;;
12267;SDS011;6196;48.398;11.736;2023-06-22T10:11:05;9.55;;;4.45;;
12267;SDS011;6196;48.398;11.736;2023-06-22T10:13:32;8.73;;;5.28;;
12267;SDS011;6196;48.398;11.736;2023-06-22T10:15:59;10.93;;;4.78;;
12267;SDS011;6196;48.398;11.736;2023-06-22T10:18:26;14.05;;;5.57;;
12267;SDS011;6196;48.398;11.736;2023-06-22T10:20:53;8.38;;;5.15;;
12267;SDS011;6196;48.398;11.736;2023-06-22T10:23:20;12.43;;;5.70;;
12267;SDS011;6196;48.398;11.736;2023-06-22T10:25:48;9.43;;;4.88;;
12267;SDS011;6196;48.398;11.736;2023-06-22T10:28:15;10.52;;;4.97;;
12267;SDS011;6196;48.398;11.736;2023-06-22T10:30:42;10.10;;;5.30;;
12267;SDS011;6196;48.398;11.736;2023-06-22T10:33:10;14.30;;;5.82;;
12267;SDS011;6196;48.398;11.736;2023-06-22T10:35:38;13.25;;;5.50;;
12267;SDS011;6196;48.398;11.736;2023-06-22T10:38:05;8.68;;;4.80;;
12267;SDS011;6196;48.398;11.736;2023-06-22T10:40:32;14.25;;;5.65;;
12267;SDS011;6196;48.398;11.736;2023-06-22T10:42:59;9.27;;;4.70;;
12267;SDS011;6196;48.398;11.736;2023-06-22T10:45:26;8.75;;;4.72;;
12267;SDS011;6196;48.398;11.736;2023-06-22T10:47:55;13.18;;;5.63;;
12267;SDS011;6196;48.398;11.736;2023-06-22T10:50:22;13.65;;;4.78;;
12267;SDS011;6196;48.398;11.736;2023-06-22T10:52:50;10.98;;;5.15;;
12267;SDS011;6196;48.398;11.736;2023-06-22T10:55:18;11.40;;;4.63;;
12267;SDS011;6196;48.398;11.736;2023-06-22T10:57:44;14.05;;;4.70;;
12267;SDS011;6196;48.398;11.736;2023-06-22T11:00:13;11.15;;;4.97;;
12267;SDS011;6196;48.398;11.736;2023-06-22T11:02:42;12.13;;;5.80;;
12267;SDS011;6196;48.398;11.736;2023-06-22T11:05:09;12.57;;;4.80;;
12267;SDS011;6196;48.398;11.736;2023-06-22T11:07:37;11.48;;;5.22;;
12267;SDS011;6196;48.398;11.736;2023-06-22T11:10:11;13.35;;;5.22;;
12267;SDS011;6196;48.398;11.736;2023-06-22T11:12:39;13.27;;;5.35;;
12267;SDS011;6196;48.398;11.736;2023-06-22T11:15:06;12.52;;;5.32;;
12267;SDS011;6196;48.398;11.736;2023-06-22T11:17:34;9.70;;;4.70;;
12267;SDS011;6196;48.398;11.736;2023-06-22T11:20:02;10.10;;;4.95;;
12267;SDS011;6196;48.398;11.736;2023-06-22T11:22:39;10.05;;;4.93;;
12267;SDS011;6196;48.398;11.736;2023-06-22T11:25:07;12.07;;;5.40;;
12267;SDS011;6196;48.398;11.736;2023-06-22T11:27:35;14.05;;;5.40;;
12267;SDS011;6196;48.398;11.736;2023-06-22T11:30:02;11.48;;;5.40;;
12267;SDS011;6196;48.398;11.736;2023-06-22T11:32:30;13.35;;;5.65;;
12267;SDS011;6196;48.398;11.736;2023-06-22T11:34:57;10.57;;;5.07;;
12267;SDS011;6196;48.398;11.736;2023-06-22T11:37:24;11.02;;;5.75;;
12267;SDS011;6196;48.398;11.736;2023-06-22T11:39:51;15.50;;;5.18;;
12267;SDS011;6196;48.398;11.736;2023-06-22T11:42:24;14.65;;;5.82;;
12267;SDS011;6196;48.398;11.736;2023-06-22T11:44:51;13.82;;;5.53;;
12267;SDS011;6196;48.398;11.736;2023-06-22T11:47:18;11.52;;;5.07;;
12267;SDS011;6196;48.398;11.736;2023-06-22T11:49:45;13.38;;;5.68;;
12267;SDS011;6196;48.398;11.736;2023-06-22T11:52:12;9.73;;;4.78;;
12267;SDS011;6196;48.398;11.736;2023-06-22T11:54:39;13.65;;;5.55;;
12267;SDS011;6196;48.398;11.736;2023-06-22T11:57:06;9.98;;;5.22;;
12267;SDS011;6196;48.398;11.736;2023-06-22T11:59:33;11.43;;;5.60;;
12267;SDS011;6196;48.398;11.736;2023-06-22T12:02:00;14.73;;;4.97;;
12267;SDS011;6196;48.398;11.736;2023-06-22T12:04:27;10.13;;;5.95;;
12267;SDS011;6196;48.398;11.736;2023-06-22T12:06:54;11.15;;;5.25;;
12267;SDS011;6196;48.398;11.736;2023-06-22T12:09:21;15.80;;;6.07;;
12267;SDS011;6196;48.398;11.736;2023-06-22T12:11:48;13.27;;;5.32;;
12267;SDS011;6196;48.398;11.736;2023-06-22T12:14:14;13.82;;;5.63;;
12267;SDS011;6196;48.398;11.736;2023-06-22T12:16:41;15.38;;;5.05;;
12267;SDS011;6196;48.398;11.736;2023-06-22T12:19:10;14.75;;;5.63;;
12267;SDS011;6196;48.398;11.736;2023-06-22T12:21:37;15.13;;;5.57;;
12267;SDS011;6196;48.398;11.736;2023-06-22T12:24:06;16.58;;;6.10;;
12267;SDS011;6196;48.398;11.736;2023-06-22T12:26:33;12.80;;;5.43;;
12267;SDS011;6196;48.398;11.736;2023-06-22T12:29:00;12.45;;;6.03;;
12267;SDS011;6196;48.398;11.736;2023-06-22T12:31:27;14.35;;;5.72;;
12267;SDS011;6196;48.398;11.736;2023-06-22T12:33:54;12.32;;;5.30;;
12267;SDS011;6196;48.398;11.736;2023-06-22T12:36:21;12.13;;;5.45;;
12267;SDS011;6196;48.398;11.736;2023-06-22T12:38:48;13.13;;;5.22;;
12267;SDS011;6196;48.398;11.736;2023-06-22T12:41:15;14.13;;;4.90;;
12267;SDS011;6196;48.398;11.736;2023-06-22T12:43:42;17.27;;;5.78;;
12267;SDS011;6196;48.398;11.736;2023-06-22T12:46:09;9.30;;;5.18;;
12267;SDS011;6196;48.398;11.736;2023-06-22T12:48:36;14.93;;;5.70;;
12267;SDS011;6196;48.398;11.736;2023-06-22T12:51:09;19.45;;;5.55;;
12267;SDS011;6196;48.398;11.736;2023-06-22T12:53:36;14.95;;;5.60;;
12267;SDS011;6196;48.398;11.736;2023-06-22T12:56:03;16.08;;;5.43;;
12267;SDS011;6196;48.398;11.736;2023-06-22T12:58:30;17.13;;;5.22;;
12267;SDS011;6196;48.398;11.736;2023-06-22T13:00:57;13.15;;;5.47;;
12267;SDS011;6196;48.398;11.736;2023-06-22T13:03:24;14.82;;;5.50;;
12267;SDS011;6196;48.398;11.736;2023-06-22T13:05:53;14.77;;;5.72;;
12267;SDS011;6196;48.398;11.736;2023-06-22T13:08:20;18.00;;;4.90;;
12267;SDS011;6196;48.398;11.736;2023-06-22T13:10:47;16.10;;;5.35;;
12267;SDS011;6196;48.398;11.736;2023-06-22T13:13:14;15.18;;;5.72;;
12267;SDS011;6196;48.398;11.736;2023-06-22T13:15:41;16.38;;;5.35;;
12267;SDS011;6196;48.398;11.736;2023-06-22T13:18:08;13.40;;;5.43;;
12267;SDS011;6196;48.398;11.736;2023-06-22T13:20:35;18.65;;;5.65;;
12267;SDS011;6196;48.398;11.736;2023-06-22T13:23:02;14.40;;;5.68;;
12267;SDS011;6196;48.398;11.736;2023-06-22T13:25:29;13.52;;;6.03;;
12267;SDS011;6196;48.398;11.736;2023-06-22T13:27:56;13.25;;;5.50;;
12267;SDS011;6196;48.398;11.736;2023-06-22T13:30:23;12.10;;;5.13;;
12267;SDS011;6196;48.398;11.736;2023-06-22T13:33:08;13.63;;;5.60;;
12267;SDS011;6196;48.398;11.736;2023-06-22T13:35:35;10.98;;;5.10;;
12267;SDS011;6196;48.398;11.736;2023-06-22T13:38:20;15.00;;;5.68;;
12267;SDS011;6196;48.398;11.736;2023-06-22T13:40:46;14.23;;;5.95;;
12267;SDS011;6196;48.398;11.736;2023-06-22T13:43:31;13.63;;;5.57;;
12267;SDS011;6196;48.398;11.736;2023-06-22T13:45:58;17.45;;;5.90;;
12267;SDS011;6196;48.398;11.736;2023-06-22T13:48:43;17.70;;;6.05;;
12267;SDS011;6196;48.398;11.736;2023-06-22T13:51:10;11.57;;;5.60;;
12267;SDS011;6196;48.398;11.736;2023-06-22T13:53:37;13.02;;;5.57;;
12267;SDS011;6196;48.398;11.736;2023-06-22T13:56:04;15.18;;;5.88;;
12267;SDS011;6196;48.398;11.736;2023-06-22T13:58:31;16.35;;;5.90;;
12267;SDS011;6196;48.398;11.736;2023-06-22T14:00:58;12.73;;;5.28;;
12267;SDS011;6196;48.398;11.736;2023-06-22T14:03:25;11.38;;;5.47;;
12267;SDS011;6196;48.398;11.736;2023-06-22T14:05:52;15.15;;;5.70;;
12267;SDS011;6196;48.398;11.736;2023-06-22T14:08:21;10.57;;;5.60;;
12267;SDS011;6196;48.398;11.736;2023-06-22T14:11:07;14.35;;;5.25;;
12267;SDS011;6196;48.398;11.736;2023-06-22T14:13:33;11.27;;;5.18;;
12267;SDS011;6196;48.398;11.736;2023-06-22T14:16:02;10.57;;;5.43;;
12267;SDS011;6196;48.398;11.736;2023-06-22T14:18:30;10.55;;;5.30;;
12267;SDS011;6196;48.398;11.736;2023-06-22T14:20:57;13.55;;;5.18;;
12267;SDS011;6196;48.398;11.736;2023-06-22T14:23:24;16.48;;;6.57;;
12267;SDS011;6196;48.398;11.736;2023-06-22T14:25:51;12.80;;;5.28;;
12267;SDS011;6196;48.398;11.736;2023-06-22T14:28:18;11.75;;;5.28;;
12267;SDS011;6196;48.398;11.736;2023-06-22T14:30:45;10.63;;;5.13;;
12267;SDS011;6196;48.398;11.736;2023-06-22T14:33:12;11.73;;;5.00;;
12267;SDS011;6196;48.398;11.736;2023-06-22T14:35:39;14.25;;;5.35;;
12267;SDS011;6196;48.398;11.736;2023-06-22T14:38:06;13.05;;;5.68;;
12267;SDS011;6196;48.398;11.736;2023-06-22T14:40:33;12.50;;;5.55;;
12267;SDS011;6196;48.398;11.736;2023-06-22T14:43:18;14.45;;;5.18;;
12267;SDS011;6196;48.398;11.736;2023-06-22T14:45:45;12.05;;;5.85;;
12267;SDS011;6196;48.398;11.736;2023-06-22T14:48:12;9.90;;;5.53;;
12267;SDS011;6196;48.398;11.736;2023-06-22T14:50:39;10.93;;;5.55;;
12267;SDS011;6196;48.398;11.736;2023-06-22T14:53:06;13.38;;;5.38;;